sensor_id;sensor_type;location;lat;lon;timestamp;temperature;humidity
38380;DHT22;38377;47.418;18.882;2024-01-25T00:02:15;6.90;99.90
38380;DHT22;38377;47.418;18.882;2024-01-25T00:04:40;6.90;99.90
38380;DHT22;38377;47.418;18.882;2024-01-25T00:07:08;6.90;99.90
38380;DHT22;38377;47.418;18.882;2024-01-25T00:09:33;7.00;99.90
38380;DHT22;38377;47.418;18.882;2024-01-25T00:11:59;7.10;99.90
38380;DHT22;38377;47.418;18.882;2024-01-25T00:14:24;7.30;99.10
38380;DHT22;38377;47.418;18.882;2024-01-25T00:16:50;7.50;98.50
38380;DHT22;38377;47.418;18.882;2024-01-25T00:19:17;7.70;98.10
38380;DHT22;38377;47.418;18.882;2024-01-25T00:21:43;7.70;97.90
38380;DHT22;38377;47.418;18.882;2024-01-25T00:24:12;7.80;97.50
38380;DHT22;38377;47.418;18.882;2024-01-25T00:26:37;7.80;97.30
38380;DHT22;38377;47.418;18.882;2024-01-25T00:29:03;7.90;97.10
38380;DHT22;38377;47.418;18.882;2024-01-25T00:31:29;7.80;97.20
38380;DHT22;38377;47.418;18.882;2024-01-25T00:33:56;7.90;96.80
38380;DHT22;38377;47.418;18.882;2024-01-25T00:36:22;8.00;96.50
38380;DHT22;38377;47.418;18.882;2024-01-25T00:38:48;8.00;96.10
38380;DHT22;38377;47.418;18.882;2024-01-25T00:41:17;8.10;95.70
38380;DHT22;38377;47.418;18.882;2024-01-25T00:43:44;8.10;95.40
38380;DHT22;38377;47.418;18.882;2024-01-25T00:46:10;8.10;95.50
38380;DHT22;38377;47.418;18.882;2024-01-25T00:48:36;8.10;95.50
38380;DHT22;38377;47.418;18.882;2024-01-25T00:51:03;8.00;95.40
38380;DHT22;38377;47.418;18.882;2024-01-25T00:53:32;8.10;95.20
38380;DHT22;38377;47.418;18.882;2024-01-25T00:55:58;8.10;95.20
38380;DHT22;38377;47.418;18.882;2024-01-25T00:58:24;8.00;95.40
38380;DHT22;38377;47.418;18.882;2024-01-25T01:00:50;7.90;95.40
38380;DHT22;38377;47.418;18.882;2024-01-25T01:03:18;7.80;95.70
38380;DHT22;38377;47.418;18.882;2024-01-25T01:05:44;7.70;95.90
38380;DHT22;38377;47.418;18.882;2024-01-25T01:08:10;7.60;96.20
38380;DHT22;38377;47.418;18.882;2024-01-25T01:10:36;7.50;96.00
38380;DHT22;38377;47.418;18.882;2024-01-25T01:13:01;7.50;96.30
38380;DHT22;38377;47.418;18.882;2024-01-25T01:15:27;7.40;96.50
38380;DHT22;38377;47.418;18.882;2024-01-25T01:17:53;7.30;96.60
38380;DHT22;38377;47.418;18.882;2024-01-25T01:20:18;7.20;96.90
38380;DHT22;38377;47.418;18.882;2024-01-25T01:22:44;7.10;97.00
38380;DHT22;38377;47.418;18.882;2024-01-25T01:25:10;7.10;97.10
38380;DHT22;38377;47.418;18.882;2024-01-25T01:27:36;7.10;97.30
38380;DHT22;38377;47.418;18.882;2024-01-25T01:30:01;7.00;97.30
38380;DHT22;38377;47.418;18.882;2024-01-25T01:32:27;7.10;97.20
38380;DHT22;38377;47.418;18.882;2024-01-25T01:34:53;7.00;97.20
38380;DHT22;38377;47.418;18.882;2024-01-25T01:37:18;7.10;96.90
38380;DHT22;38377;47.418;18.882;2024-01-25T01:39:44;7.10;96.90
38380;DHT22;38377;47.418;18.882;2024-01-25T01:42:09;7.10;97.00
38380;DHT22;38377;47.418;18.882;2024-01-25T01:44:35;7.10;96.90
38380;DHT22;38377;47.418;18.882;2024-01-25T01:47:01;7.10;97.00
38380;DHT22;38377;47.418;18.882;2024-01-25T01:49:27;6.90;97.40
38380;DHT22;38377;47.418;18.882;2024-01-25T01:51:53;7.00;97.20
38380;DHT22;38377;47.418;18.882;2024-01-25T01:54:19;7.00;96.90
38380;DHT22;38377;47.418;18.882;2024-01-25T01:56:45;7.10;96.70
38380;DHT22;38377;47.418;18.882;2024-01-25T01:59:11;7.20;96.70
38380;DHT22;38377;47.418;18.882;2024-01-25T02:01:37;7.20;96.40
38380;DHT22;38377;47.418;18.882;2024-01-25T02:04:04;7.30;96.20
38380;DHT22;38377;47.418;18.882;2024-01-25T02:06:30;7.40;96.00
38380;DHT22;38377;47.418;18.882;2024-01-25T02:08:55;7.40;96.10
38380;DHT22;38377;47.418;18.882;2024-01-25T02:11:24;7.40;96.00
38380;DHT22;38377;47.418;18.882;2024-01-25T02:13:50;7.40;96.10
38380;DHT22;38377;47.418;18.882;2024-01-25T02:16:16;7.40;96.00
38380;DHT22;38377;47.418;18.882;2024-01-25T02:18:43;7.40;95.80
38380;DHT22;38377;47.418;18.882;2024-01-25T02:21:08;7.50;95.70
38380;DHT22;38377;47.418;18.882;2024-01-25T02:23:34;7.50;95.70
38380;DHT22;38377;47.418;18.882;2024-01-25T02:26:00;7.40;95.90
38380;DHT22;38377;47.418;18.882;2024-01-25T02:28:25;7.40;96.00
38380;DHT22;38377;47.418;18.882;2024-01-25T02:30:51;7.40;95.90
38380;DHT22;38377;47.418;18.882;2024-01-25T02:33:17;7.50;95.70
38380;DHT22;38377;47.418;18.882;2024-01-25T02:35:43;7.60;95.50
38380;DHT22;38377;47.418;18.882;2024-01-25T02:38:08;7.70;95.40
38380;DHT22;38377;47.418;18.882;2024-01-25T02:40:34;7.70;95.60
38380;DHT22;38377;47.418;18.882;2024-01-25T02:43:00;7.70;95.60
38380;DHT22;38377;47.418;18.882;2024-01-25T02:45:25;7.80;95.40
38380;DHT22;38377;47.418;18.882;2024-01-25T02:47:51;7.90;95.60
38380;DHT22;38377;47.418;18.882;2024-01-25T02:50:17;7.90;95.60
38380;DHT22;38377;47.418;18.882;2024-01-25T02:52:42;7.90;95.90
38380;DHT22;38377;47.418;18.882;2024-01-25T02:55:08;7.90;96.20
38380;DHT22;38377;47.418;18.882;2024-01-25T02:57:34;7.90;96.50
38380;DHT22;38377;47.418;18.882;2024-01-25T02:59:59;7.90;96.80
38380;DHT22;38377;47.418;18.882;2024-01-25T03:02:25;7.80;97.20
38380;DHT22;38377;47.418;18.882;2024-01-25T03:04:50;7.80;97.40
38380;DHT22;38377;47.418;18.882;2024-01-25T03:07:16;7.90;97.60
38380;DHT22;38377;47.418;18.882;2024-01-25T03:09:42;7.80;98.00
38380;DHT22;38377;47.418;18.882;2024-01-25T03:12:07;7.60;98.40
38380;DHT22;38377;47.418;18.882;2024-01-25T03:14:33;7.60;98.50
38380;DHT22;38377;47.418;18.882;2024-01-25T03:16:58;7.50;98.70
38380;DHT22;38377;47.418;18.882;2024-01-25T03:19:26;7.40;99.00
38380;DHT22;38377;47.418;18.882;2024-01-25T03:21:52;7.40;99.20
38380;DHT22;38377;47.418;18.882;2024-01-25T03:24:17;7.40;99.30
38380;DHT22;38377;47.418;18.882;2024-01-25T03:26:43;7.50;99.30
38380;DHT22;38377;47.418;18.882;2024-01-25T03:29:08;7.40;99.50
38380;DHT22;38377;47.418;18.882;2024-01-25T03:31:34;7.40;99.40
38380;DHT22;38377;47.418;18.882;2024-01-25T03:34:01;7.40;99.80
38380;DHT22;38377;47.418;18.882;2024-01-25T03:36:27;7.30;99.80
38380;DHT22;38377;47.418;18.882;2024-01-25T03:38:53;7.20;99.90
38380;DHT22;38377;47.418;18.882;2024-01-25T03:41:18;7.20;99.90
38380;DHT22;38377;47.418;18.882;2024-01-25T03:43:44;7.20;99.90
38380;DHT22;38377;47.418;18.882;2024-01-25T03:46:11;7.20;99.90
38380;DHT22;38377;47.418;18.882;2024-01-25T03:48:37;7.20;99.90
38380;DHT22;38377;47.418;18.882;2024-01-25T03:51:02;7.20;99.90
38380;DHT22;38377;47.418;18.882;2024-01-25T03:53:28;7.20;99.70
38380;DHT22;38377;47.418;18.882;2024-01-25T03:55:54;7.30;99.70
38380;DHT22;38377;47.418;18.882;2024-01-25T03:58:19;7.30;99.80
38380;DHT22;38377;47.418;18.882;2024-01-25T04:00:45;7.30;99.70
38380;DHT22;38377;47.418;18.882;2024-01-25T04:03:11;7.30;99.70
38380;DHT22;38377;47.418;18.882;2024-01-25T04:05:37;7.30;99.80
38380;DHT22;38377;47.418;18.882;2024-01-25T04:08:05;7.30;99.60
38380;DHT22;38377;47.418;18.882;2024-01-25T04:10:31;7.30;99.50
38380;DHT22;38377;47.418;18.882;2024-01-25T04:12:56;7.40;99.30
38380;DHT22;38377;47.418;18.882;2024-01-25T04:15:22;7.30;99.70
38380;DHT22;38377;47.418;18.882;2024-01-25T04:17:48;7.40;99.40
38380;DHT22;38377;47.418;18.882;2024-01-25T04:20:14;7.40;99.30
38380;DHT22;38377;47.418;18.882;2024-01-25T04:22:40;7.50;99.00
38380;DHT22;38377;47.418;18.882;2024-01-25T04:25:06;7.50;98.80
38380;DHT22;38377;47.418;18.882;2024-01-25T04:27:32;7.50;98.90
38380;DHT22;38377;47.418;18.882;2024-01-25T04:29:57;7.50;98.90
38380;DHT22;38377;47.418;18.882;2024-01-25T04:32:23;7.50;99.00
38380;DHT22;38377;47.418;18.882;2024-01-25T04:34:48;7.50;99.00
38380;DHT22;38377;47.418;18.882;2024-01-25T04:37:14;7.50;99.10
38380;DHT22;38377;47.418;18.882;2024-01-25T04:39:40;7.50;98.80
38380;DHT22;38377;47.418;18.882;2024-01-25T04:42:05;7.50;98.90
38380;DHT22;38377;47.418;18.882;2024-01-25T04:44:31;7.50;98.70
38380;DHT22;38377;47.418;18.882;2024-01-25T04:46:57;7.60;98.70
38380;DHT22;38377;47.418;18.882;2024-01-25T04:49:23;7.60;98.70
38380;DHT22;38377;47.418;18.882;2024-01-25T04:51:48;7.60;98.70
38380;DHT22;38377;47.418;18.882;2024-01-25T04:54:14;7.50;98.90
38380;DHT22;38377;47.418;18.882;2024-01-25T04:56:41;7.50;98.80
38380;DHT22;38377;47.418;18.882;2024-01-25T04:59:07;7.50;98.90
38380;DHT22;38377;47.418;18.882;2024-01-25T05:01:32;7.50;98.90
38380;DHT22;38377;47.418;18.882;2024-01-25T05:03:58;7.50;98.90
38380;DHT22;38377;47.418;18.882;2024-01-25T05:06:24;7.50;99.10
38380;DHT22;38377;47.418;18.882;2024-01-25T05:08:49;7.50;99.10
38380;DHT22;38377;47.418;18.882;2024-01-25T05:11:15;7.40;99.10
38380;DHT22;38377;47.418;18.882;2024-01-25T05:13:40;7.40;99.50
38380;DHT22;38377;47.418;18.882;2024-01-25T05:16:06;7.30;99.40
38380;DHT22;38377;47.418;18.882;2024-01-25T05:18:32;7.30;99.40
38380;DHT22;38377;47.418;18.882;2024-01-25T05:20:57;7.30;99.40
38380;DHT22;38377;47.418;18.882;2024-01-25T05:23:23;7.30;99.40
38380;DHT22;38377;47.418;18.882;2024-01-25T05:25:50;7.20;99.50
38380;DHT22;38377;47.418;18.882;2024-01-25T05:28:15;7.20;99.50
38380;DHT22;38377;47.418;18.882;2024-01-25T05:30:41;7.20;99.50
38380;DHT22;38377;47.418;18.882;2024-01-25T05:33:06;7.20;99.60
38380;DHT22;38377;47.418;18.882;2024-01-25T05:35:32;7.10;99.60
38380;DHT22;38377;47.418;18.882;2024-01-25T05:38:00;7.10;99.70
38380;DHT22;38377;47.418;18.882;2024-01-25T05:40:26;7.20;99.60
38380;DHT22;38377;47.418;18.882;2024-01-25T05:42:51;7.20;99.50
38380;DHT22;38377;47.418;18.882;2024-01-25T05:45:17;7.20;99.60
38380;DHT22;38377;47.418;18.882;2024-01-25T05:47:46;7.10;99.80
38380;DHT22;38377;47.418;18.882;2024-01-25T05:50:12;7.10;99.90
38380;DHT22;38377;47.418;18.882;2024-01-25T05:52:38;7.10;99.90
38380;DHT22;38377;47.418;18.882;2024-01-25T05:55:04;7.00;99.90
38380;DHT22;38377;47.418;18.882;2024-01-25T05:57:30;7.00;99.90
38380;DHT22;38377;47.418;18.882;2024-01-25T05:59:56;7.00;99.90
38380;DHT22;38377;47.418;18.882;2024-01-25T06:02:22;7.00;99.90
38380;DHT22;38377;47.418;18.882;2024-01-25T06:04:47;7.00;99.90
38380;DHT22;38377;47.418;18.882;2024-01-25T06:07:13;7.00;99.90
38380;DHT22;38377;47.418;18.882;2024-01-25T06:09:38;7.00;99.90
38380;DHT22;38377;47.418;18.882;2024-01-25T06:12:04;7.10;99.90
38380;DHT22;38377;47.418;18.882;2024-01-25T06:14:30;7.20;99.80
38380;DHT22;38377;47.418;18.882;2024-01-25T06:16:56;7.20;99.80
38380;DHT22;38377;47.418;18.882;2024-01-25T06:19:22;7.20;99.60
38380;DHT22;38377;47.418;18.882;2024-01-25T06:21:47;7.20;99.70
38380;DHT22;38377;47.418;18.882;2024-01-25T06:24:13;7.20;99.40
38380;DHT22;38377;47.418;18.882;2024-01-25T06:26:39;7.30;99.20
38380;DHT22;38377;47.418;18.882;2024-01-25T06:29:04;7.40;99.00
38380;DHT22;38377;47.418;18.882;2024-01-25T06:31:30;7.40;98.60
38380;DHT22;38377;47.418;18.882;2024-01-25T06:33:56;7.40;98.50
38380;DHT22;38377;47.418;18.882;2024-01-25T06:36:24;7.50;98.30
38380;DHT22;38377;47.418;18.882;2024-01-25T06:38:50;7.60;98.10
38380;DHT22;38377;47.418;18.882;2024-01-25T06:41:16;7.60;98.10
38380;DHT22;38377;47.418;18.882;2024-01-25T06:43:42;7.70;97.70
38380;DHT22;38377;47.418;18.882;2024-01-25T06:46:08;7.80;97.50
38380;DHT22;38377;47.418;18.882;2024-01-25T06:48:33;7.80;97.30
38380;DHT22;38377;47.418;18.882;2024-01-25T06:50:59;7.80;97.40
38380;DHT22;38377;47.418;18.882;2024-01-25T06:53:26;7.80;97.30
38380;DHT22;38377;47.418;18.882;2024-01-25T06:55:51;7.80;96.90
38380;DHT22;38377;47.418;18.882;2024-01-25T06:58:17;7.80;97.00
38380;DHT22;38377;47.418;18.882;2024-01-25T07:00:44;7.90;96.80
38380;DHT22;38377;47.418;18.882;2024-01-25T07:03:10;7.90;96.90
38380;DHT22;38377;47.418;18.882;2024-01-25T07:05:36;7.90;96.60
38380;DHT22;38377;47.418;18.882;2024-01-25T07:08:02;7.90;96.60
38380;DHT22;38377;47.418;18.882;2024-01-25T07:10:28;7.90;96.50
38380;DHT22;38377;47.418;18.882;2024-01-25T07:12:54;7.90;96.70
38380;DHT22;38377;47.418;18.882;2024-01-25T07:15:22;7.90;96.40
38380;DHT22;38377;47.418;18.882;2024-01-25T07:17:49;7.90;96.30
38380;DHT22;38377;47.418;18.882;2024-01-25T07:20:14;7.90;96.30
38380;DHT22;38377;47.418;18.882;2024-01-25T07:22:40;7.80;96.40
38380;DHT22;38377;47.418;18.882;2024-01-25T07:25:06;7.80;96.50
38380;DHT22;38377;47.418;18.882;2024-01-25T07:27:32;7.80;96.50
38380;DHT22;38377;47.418;18.882;2024-01-25T07:29:57;7.80;96.60
38380;DHT22;38377;47.418;18.882;2024-01-25T07:32:23;7.80;96.50
38380;DHT22;38377;47.418;18.882;2024-01-25T07:34:52;7.90;96.60
38380;DHT22;38377;47.418;18.882;2024-01-25T07:37:18;7.90;96.40
38380;DHT22;38377;47.418;18.882;2024-01-25T07:39:44;8.00;96.50
38380;DHT22;38377;47.418;18.882;2024-01-25T07:42:12;8.00;96.50
38380;DHT22;38377;47.418;18.882;2024-01-25T07:44:38;8.00;96.00
38380;DHT22;38377;47.418;18.882;2024-01-25T07:47:03;8.10;95.80
38380;DHT22;38377;47.418;18.882;2024-01-25T07:49:29;8.20;95.30
38380;DHT22;38377;47.418;18.882;2024-01-25T07:51:55;8.30;95.10
38380;DHT22;38377;47.418;18.882;2024-01-25T07:54:24;8.30;94.70
38380;DHT22;38377;47.418;18.882;2024-01-25T07:56:51;8.40;94.80
38380;DHT22;38377;47.418;18.882;2024-01-25T07:59:16;8.40;94.30
38380;DHT22;38377;47.418;18.882;2024-01-25T08:01:42;8.50;94.20
38380;DHT22;38377;47.418;18.882;2024-01-25T08:04:08;8.50;94.00
38380;DHT22;38377;47.418;18.882;2024-01-25T08:06:33;8.50;94.20
38380;DHT22;38377;47.418;18.882;2024-01-25T08:08:59;8.60;94.10
38380;DHT22;38377;47.418;18.882;2024-01-25T08:11:25;8.60;94.20
38380;DHT22;38377;47.418;18.882;2024-01-25T08:13:51;8.70;94.00
38380;DHT22;38377;47.418;18.882;2024-01-25T08:16:17;8.70;94.10
38380;DHT22;38377;47.418;18.882;2024-01-25T08:18:49;8.70;94.00
38380;DHT22;38377;47.418;18.882;2024-01-25T08:21:15;8.80;94.20
38380;DHT22;38377;47.418;18.882;2024-01-25T08:23:41;8.80;93.90
38380;DHT22;38377;47.418;18.882;2024-01-25T08:26:07;8.80;94.00
38380;DHT22;38377;47.418;18.882;2024-01-25T08:28:42;8.90;94.20
38380;DHT22;38377;47.418;18.882;2024-01-25T08:31:11;9.00;94.00
38380;DHT22;38377;47.418;18.882;2024-01-25T08:33:38;9.00;93.80
38380;DHT22;38377;47.418;18.882;2024-01-25T08:36:07;9.10;93.60
38380;DHT22;38377;47.418;18.882;2024-01-25T08:38:33;9.10;93.70
38380;DHT22;38377;47.418;18.882;2024-01-25T08:40:58;9.20;93.40
38380;DHT22;38377;47.418;18.882;2024-01-25T08:43:24;9.20;93.40
38380;DHT22;38377;47.418;18.882;2024-01-25T08:45:49;9.20;93.30
38380;DHT22;38377;47.418;18.882;2024-01-25T08:48:15;9.30;92.90
38380;DHT22;38377;47.418;18.882;2024-01-25T08:50:41;9.30;93.20
38380;DHT22;38377;47.418;18.882;2024-01-25T08:53:06;9.50;95.50
38380;DHT22;38377;47.418;18.882;2024-01-25T08:55:32;9.50;92.40
38380;DHT22;38377;47.418;18.882;2024-01-25T08:57:57;9.50;91.80
38380;DHT22;38377;47.418;18.882;2024-01-25T09:00:23;9.50;91.70
38380;DHT22;38377;47.418;18.882;2024-01-25T09:02:49;9.40;92.00
38380;DHT22;38377;47.418;18.882;2024-01-25T09:05:14;9.50;91.90
38380;DHT22;38377;47.418;18.882;2024-01-25T09:07:40;9.40;92.40
38380;DHT22;38377;47.418;18.882;2024-01-25T09:10:07;9.50;92.00
38380;DHT22;38377;47.418;18.882;2024-01-25T09:12:34;9.60;92.00
38380;DHT22;38377;47.418;18.882;2024-01-25T09:15:02;9.60;92.00
38380;DHT22;38377;47.418;18.882;2024-01-25T09:17:28;9.60;91.40
38380;DHT22;38377;47.418;18.882;2024-01-25T09:19:53;9.60;91.50
38380;DHT22;38377;47.418;18.882;2024-01-25T09:22:19;9.70;91.50
38380;DHT22;38377;47.418;18.882;2024-01-25T09:24:50;9.70;91.40
38380;DHT22;38377;47.418;18.882;2024-01-25T09:27:15;9.70;91.70
38380;DHT22;38377;47.418;18.882;2024-01-25T09:29:41;9.70;91.00
38380;DHT22;38377;47.418;18.882;2024-01-25T09:32:08;9.70;91.20
38380;DHT22;38377;47.418;18.882;2024-01-25T09:34:34;9.80;91.10
38380;DHT22;38377;47.418;18.882;2024-01-25T09:37:00;9.70;90.70
38380;DHT22;38377;47.418;18.882;2024-01-25T09:39:26;9.80;90.80
38380;DHT22;38377;47.418;18.882;2024-01-25T09:41:56;9.90;90.60
38380;DHT22;38377;47.418;18.882;2024-01-25T09:44:22;9.90;89.70
38380;DHT22;38377;47.418;18.882;2024-01-25T09:46:48;10.00;89.80
38380;DHT22;38377;47.418;18.882;2024-01-25T09:49:13;10.00;88.90
38380;DHT22;38377;47.418;18.882;2024-01-25T09:51:41;10.00;89.60
38380;DHT22;38377;47.418;18.882;2024-01-25T09:54:07;10.00;89.10
38380;DHT22;38377;47.418;18.882;2024-01-25T09:56:34;10.00;89.10
38380;DHT22;38377;47.418;18.882;2024-01-25T09:59:00;10.10;88.90
38380;DHT22;38377;47.418;18.882;2024-01-25T10:01:26;10.20;88.80
38380;DHT22;38377;47.418;18.882;2024-01-25T10:03:52;10.10;87.70
38380;DHT22;38377;47.418;18.882;2024-01-25T10:06:18;10.10;88.70
38380;DHT22;38377;47.418;18.882;2024-01-25T10:08:44;10.20;89.40
38380;DHT22;38377;47.418;18.882;2024-01-25T10:11:10;10.20;89.00
38380;DHT22;38377;47.418;18.882;2024-01-25T10:13:45;10.10;88.90
38380;DHT22;38377;47.418;18.882;2024-01-25T10:16:12;10.10;88.10
38380;DHT22;38377;47.418;18.882;2024-01-25T10:18:40;10.00;88.60
38380;DHT22;38377;47.418;18.882;2024-01-25T10:21:06;10.00;87.80
38380;DHT22;38377;47.418;18.882;2024-01-25T10:23:32;10.10;87.70
38380;DHT22;38377;47.418;18.882;2024-01-25T10:25:58;10.30;87.60
38380;DHT22;38377;47.418;18.882;2024-01-25T10:28:24;10.20;87.10
38380;DHT22;38377;47.418;18.882;2024-01-25T10:30:51;10.20;86.70
38380;DHT22;38377;47.418;18.882;2024-01-25T10:33:17;10.30;87.20
38380;DHT22;38377;47.418;18.882;2024-01-25T10:35:45;10.30;86.60
38380;DHT22;38377;47.418;18.882;2024-01-25T10:38:16;10.20;88.00
38380;DHT22;38377;47.418;18.882;2024-01-25T10:40:43;10.20;87.20
38380;DHT22;38377;47.418;18.882;2024-01-25T10:43:09;10.20;86.90
38380;DHT22;38377;47.418;18.882;2024-01-25T10:45:35;10.20;87.40
38380;DHT22;38377;47.418;18.882;2024-01-25T10:48:00;10.30;86.70
38380;DHT22;38377;47.418;18.882;2024-01-25T10:50:29;10.20;86.00
38380;DHT22;38377;47.418;18.882;2024-01-25T10:52:55;10.20;86.00
38380;DHT22;38377;47.418;18.882;2024-01-25T10:55:21;10.30;86.50
38380;DHT22;38377;47.418;18.882;2024-01-25T10:57:47;10.20;86.10
38380;DHT22;38377;47.418;18.882;2024-01-25T11:00:15;10.30;86.70
38380;DHT22;38377;47.418;18.882;2024-01-25T11:02:42;10.30;86.60
38380;DHT22;38377;47.418;18.882;2024-01-25T11:05:17;10.20;85.50
38380;DHT22;38377;47.418;18.882;2024-01-25T11:07:49;10.20;86.50
38380;DHT22;38377;47.418;18.882;2024-01-25T11:10:17;10.20;85.70
38380;DHT22;38377;47.418;18.882;2024-01-25T11:13:13;10.20;85.20
38380;DHT22;38377;47.418;18.882;2024-01-25T11:15:39;10.30;85.40
38380;DHT22;38377;47.418;18.882;2024-01-25T11:18:08;10.20;85.50
38380;DHT22;38377;47.418;18.882;2024-01-25T11:20:35;10.20;85.40
38380;DHT22;38377;47.418;18.882;2024-01-25T11:23:05;10.20;85.60
38380;DHT22;38377;47.418;18.882;2024-01-25T11:25:40;10.10;85.50
38380;DHT22;38377;47.418;18.882;2024-01-25T11:28:09;10.10;85.80
38380;DHT22;38377;47.418;18.882;2024-01-25T11:30:35;10.10;84.90
38380;DHT22;38377;47.418;18.882;2024-01-25T11:33:04;10.10;84.90
38380;DHT22;38377;47.418;18.882;2024-01-25T11:35:31;10.20;84.40
38380;DHT22;38377;47.418;18.882;2024-01-25T11:37:56;10.30;85.00
38380;DHT22;38377;47.418;18.882;2024-01-25T11:40:23;10.20;83.40
38380;DHT22;38377;47.418;18.882;2024-01-25T11:42:50;10.10;84.50
38380;DHT22;38377;47.418;18.882;2024-01-25T11:45:19;10.10;84.10
38380;DHT22;38377;47.418;18.882;2024-01-25T11:47:45;10.10;84.40
38380;DHT22;38377;47.418;18.882;2024-01-25T11:50:12;10.10;84.60
38380;DHT22;38377;47.418;18.882;2024-01-25T11:52:38;9.90;84.80
38380;DHT22;38377;47.418;18.882;2024-01-25T11:55:05;9.80;85.60
38380;DHT22;38377;47.418;18.882;2024-01-25T11:57:34;9.60;85.70
38380;DHT22;38377;47.418;18.882;2024-01-25T12:00:01;9.70;86.00
38380;DHT22;38377;47.418;18.882;2024-01-25T12:02:27;9.80;84.10
38380;DHT22;38377;47.418;18.882;2024-01-25T12:04:53;9.90;83.20
38380;DHT22;38377;47.418;18.882;2024-01-25T12:07:21;9.80;83.10
38380;DHT22;38377;47.418;18.882;2024-01-25T12:10:05;9.80;84.40
38380;DHT22;38377;47.418;18.882;2024-01-25T12:12:31;9.90;83.40
38380;DHT22;38377;47.418;18.882;2024-01-25T12:15:00;9.90;82.10
38380;DHT22;38377;47.418;18.882;2024-01-25T12:17:29;9.80;81.90
38380;DHT22;38377;47.418;18.882;2024-01-25T12:19:59;9.80;82.00
38380;DHT22;38377;47.418;18.882;2024-01-25T12:22:29;9.80;80.10
38380;DHT22;38377;47.418;18.882;2024-01-25T12:24:58;9.80;81.10
38380;DHT22;38377;47.418;18.882;2024-01-25T12:27:25;9.80;80.80
38380;DHT22;38377;47.418;18.882;2024-01-25T12:29:52;9.80;80.50
38380;DHT22;38377;47.418;18.882;2024-01-25T12:32:22;9.90;80.40
38380;DHT22;38377;47.418;18.882;2024-01-25T12:34:58;9.90;80.50
38380;DHT22;38377;47.418;18.882;2024-01-25T12:37:26;9.90;80.00
38380;DHT22;38377;47.418;18.882;2024-01-25T12:39:53;9.90;80.00
38380;DHT22;38377;47.418;18.882;2024-01-25T12:42:19;9.90;79.60
38380;DHT22;38377;47.418;18.882;2024-01-25T12:44:45;10.00;79.00
38380;DHT22;38377;47.418;18.882;2024-01-25T12:47:11;10.00;79.40
38380;DHT22;38377;47.418;18.882;2024-01-25T12:49:42;10.00;79.50
38380;DHT22;38377;47.418;18.882;2024-01-25T12:52:11;9.90;79.90
38380;DHT22;38377;47.418;18.882;2024-01-25T12:54:37;9.90;79.60
38380;DHT22;38377;47.418;18.882;2024-01-25T12:57:04;9.90;80.50
38380;DHT22;38377;47.418;18.882;2024-01-25T12:59:29;9.90;80.10
38380;DHT22;38377;47.418;18.882;2024-01-25T13:01:55;9.90;80.90
38380;DHT22;38377;47.418;18.882;2024-01-25T13:04:21;9.90;81.70
38380;DHT22;38377;47.418;18.882;2024-01-25T13:06:48;9.90;80.30
38380;DHT22;38377;47.418;18.882;2024-01-25T13:09:14;9.90;80.30
38380;DHT22;38377;47.418;18.882;2024-01-25T13:11:41;9.80;80.10
38380;DHT22;38377;47.418;18.882;2024-01-25T13:14:07;9.80;80.40
38380;DHT22;38377;47.418;18.882;2024-01-25T13:16:33;9.80;80.40
38380;DHT22;38377;47.418;18.882;2024-01-25T13:18:59;9.80;80.40
38380;DHT22;38377;47.418;18.882;2024-01-25T13:21:24;9.80;80.30
38380;DHT22;38377;47.418;18.882;2024-01-25T13:23:50;9.70;80.10
38380;DHT22;38377;47.418;18.882;2024-01-25T13:26:16;9.70;81.40
38380;DHT22;38377;47.418;18.882;2024-01-25T13:28:41;9.70;80.40
38380;DHT22;38377;47.418;18.882;2024-01-25T13:31:07;9.70;80.60
38380;DHT22;38377;47.418;18.882;2024-01-25T13:33:35;9.60;80.20
38380;DHT22;38377;47.418;18.882;2024-01-25T13:36:01;9.70;79.90
38380;DHT22;38377;47.418;18.882;2024-01-25T13:38:26;9.60;80.50
38380;DHT22;38377;47.418;18.882;2024-01-25T13:40:52;9.50;79.90
38380;DHT22;38377;47.418;18.882;2024-01-25T13:43:18;9.50;81.00
38380;DHT22;38377;47.418;18.882;2024-01-25T13:45:44;9.50;81.30
38380;DHT22;38377;47.418;18.882;2024-01-25T13:48:09;9.50;80.90
38380;DHT22;38377;47.418;18.882;2024-01-25T13:50:35;9.40;81.10
38380;DHT22;38377;47.418;18.882;2024-01-25T13:53:00;9.40;82.00
38380;DHT22;38377;47.418;18.882;2024-01-25T13:55:29;9.40;81.40
38380;DHT22;38377;47.418;18.882;2024-01-25T13:57:54;9.40;81.90
38380;DHT22;38377;47.418;18.882;2024-01-25T14:00:20;9.40;82.00
38380;DHT22;38377;47.418;18.882;2024-01-25T14:02:46;9.30;81.10
38380;DHT22;38377;47.418;18.882;2024-01-25T14:05:12;9.30;82.10
38380;DHT22;38377;47.418;18.882;2024-01-25T14:07:38;9.30;82.30
38380;DHT22;38377;47.418;18.882;2024-01-25T14:10:03;9.30;83.90
38380;DHT22;38377;47.418;18.882;2024-01-25T14:12:29;9.50;84.40
38380;DHT22;38377;47.418;18.882;2024-01-25T14:14:57;9.40;81.50
38380;DHT22;38377;47.418;18.882;2024-01-25T14:17:23;9.30;80.80
38380;DHT22;38377;47.418;18.882;2024-01-25T14:19:55;9.20;81.30
38380;DHT22;38377;47.418;18.882;2024-01-25T14:22:22;9.20;80.80
38380;DHT22;38377;47.418;18.882;2024-01-25T14:24:48;9.10;81.80
38380;DHT22;38377;47.418;18.882;2024-01-25T14:27:13;9.10;82.30
38380;DHT22;38377;47.418;18.882;2024-01-25T14:29:39;9.00;82.10
38380;DHT22;38377;47.418;18.882;2024-01-25T14:32:04;9.00;81.60
38380;DHT22;38377;47.418;18.882;2024-01-25T14:34:32;9.00;82.60
38380;DHT22;38377;47.418;18.882;2024-01-25T14:36:58;8.90;83.00
38380;DHT22;38377;47.418;18.882;2024-01-25T14:39:24;8.90;82.60
38380;DHT22;38377;47.418;18.882;2024-01-25T14:41:49;8.90;82.30
38380;DHT22;38377;47.418;18.882;2024-01-25T14:44:19;8.80;82.30
38380;DHT22;38377;47.418;18.882;2024-01-25T14:46:44;8.80;81.80
38380;DHT22;38377;47.418;18.882;2024-01-25T14:49:10;8.80;82.60
38380;DHT22;38377;47.418;18.882;2024-01-25T15:02:08;8.80;82.90
38380;DHT22;38377;47.418;18.882;2024-01-25T15:04:34;8.60;82.90
38380;DHT22;38377;47.418;18.882;2024-01-25T15:07:00;8.50;83.40
38380;DHT22;38377;47.418;18.882;2024-01-25T15:09:25;8.50;84.30
38380;DHT22;38377;47.418;18.882;2024-01-25T15:11:53;8.40;84.50
38380;DHT22;38377;47.418;18.882;2024-01-25T15:14:19;8.40;84.70
38380;DHT22;38377;47.418;18.882;2024-01-25T15:16:45;8.30;84.60
38380;DHT22;38377;47.418;18.882;2024-01-25T15:19:11;8.30;84.90
38380;DHT22;38377;47.418;18.882;2024-01-25T15:21:37;8.30;85.00
38380;DHT22;38377;47.418;18.882;2024-01-25T15:24:03;8.20;85.10
38380;DHT22;38377;47.418;18.882;2024-01-25T15:26:29;8.20;85.40
38380;DHT22;38377;47.418;18.882;2024-01-25T15:28:54;8.10;85.50
38380;DHT22;38377;47.418;18.882;2024-01-25T15:31:20;8.10;85.50
38380;DHT22;38377;47.418;18.882;2024-01-25T15:33:45;8.10;85.10